sensor_id;sensor_type;location;lat;lon;timestamp;P1;durP1;ratioP1;P2;durP2;ratioP2
44706;SDS011;30433;45.596;8.408;2022-12-05T00:05:26;4.78;;;4.10;;
44706;SDS011;30433;45.596;8.408;2022-12-05T00:11:28;6.72;;;4.38;;
44706;SDS011;30433;45.596;8.408;2022-12-05T00:17:33;5.68;;;4.00;;
44706;SDS011;30433;45.596;8.408;2022-12-05T00:23:35;5.20;;;4.40;;
44706;SDS011;30433;45.596;8.408;2022-12-05T00:29:37;4.35;;;3.95;;
44706;SDS011;30433;45.596;8.408;2022-12-05T00:35:41;5.35;;;3.45;;
44706;SDS011;30433;45.596;8.408;2022-12-05T00:47:44;2.13;;;1.52;;
44706;SDS011;30433;45.596;8.408;2022-12-05T00:53:48;3.05;;;1.30;;
44706;SDS011;30433;45.596;8.408;2022-12-05T00:59:50;3.35;;;1.00;;
44706;SDS011;30433;45.596;8.408;2022-12-05T01:05:52;3.65;;;1.30;;
44706;SDS011;30433;45.596;8.408;2022-12-05T01:11:56;3.10;;;1.50;;
44706;SDS011;30433;45.596;8.408;2022-12-05T01:17:58;4.13;;;1.60;;
44706;SDS011;30433;45.596;8.408;2022-12-05T01:24:00;1.60;;;1.00;;
44706;SDS011;30433;45.596;8.408;2022-12-05T01:30:05;2.67;;;0.95;;
44706;SDS011;30433;45.596;8.408;2022-12-05T01:36:09;1.48;;;1.08;;
44706;SDS011;30433;45.596;8.408;2022-12-05T01:42:12;1.10;;;0.90;;
44706;SDS011;30433;45.596;8.408;2022-12-05T01:48:19;1.15;;;0.50;;
44706;SDS011;30433;45.596;8.408;2022-12-05T01:54:24;1.42;;;0.63;;
44706;SDS011;30433;45.596;8.408;2022-12-05T02:00:27;1.37;;;1.00;;
44706;SDS011;30433;45.596;8.408;2022-12-05T02:06:30;1.27;;;0.50;;
44706;SDS011;30433;45.596;8.408;2022-12-05T02:12:33;0.82;;;0.63;;
44706;SDS011;30433;45.596;8.408;2022-12-05T02:18:43;1.25;;;0.55;;
44706;SDS011;30433;45.596;8.408;2022-12-05T02:24:58;0.82;;;0.47;;
44706;SDS011;30433;45.596;8.408;2022-12-05T02:31:26;2.72;;;0.40;;
44706;SDS011;30433;45.596;8.408;2022-12-05T02:37:35;1.15;;;0.50;;
44706;SDS011;30433;45.596;8.408;2022-12-05T02:43:45;0.45;;;0.20;;
44706;SDS011;30433;45.596;8.408;2022-12-05T02:49:54;0.43;;;0.30;;
44706;SDS011;30433;45.596;8.408;2022-12-05T02:55:57;1.50;;;0.47;;
44706;SDS011;30433;45.596;8.408;2022-12-05T03:01:59;0.57;;;0.40;;
44706;SDS011;30433;45.596;8.408;2022-12-05T03:08:03;0.68;;;0.38;;
44706;SDS011;30433;45.596;8.408;2022-12-05T03:14:10;0.70;;;0.40;;
44706;SDS011;30433;45.596;8.408;2022-12-05T03:20:18;1.80;;;0.40;;
44706;SDS011;30433;45.596;8.408;2022-12-05T03:26:29;0.98;;;0.40;;
44706;SDS011;30433;45.596;8.408;2022-12-05T03:32:39;0.93;;;0.50;;
44706;SDS011;30433;45.596;8.408;2022-12-05T03:38:48;0.70;;;0.43;;
44706;SDS011;30433;45.596;8.408;2022-12-05T03:44:56;1.45;;;0.40;;
44706;SDS011;30433;45.596;8.408;2022-12-05T03:51:03;1.48;;;0.50;;
44706;SDS011;30433;45.596;8.408;2022-12-05T03:57:10;1.55;;;0.45;;
44706;SDS011;30433;45.596;8.408;2022-12-05T04:03:19;0.70;;;0.30;;
44706;SDS011;30433;45.596;8.408;2022-12-05T04:09:27;1.27;;;0.35;;
44706;SDS011;30433;45.596;8.408;2022-12-05T04:15:32;0.88;;;0.40;;
44706;SDS011;30433;45.596;8.408;2022-12-05T04:21:51;0.50;;;0.20;;
44706;SDS011;30433;45.596;8.408;2022-12-05T04:27:56;1.30;;;0.57;;
44706;SDS011;30433;45.596;8.408;2022-12-05T04:34:03;1.50;;;0.50;;
44706;SDS011;30433;45.596;8.408;2022-12-05T04:40:11;1.17;;;0.60;;
44706;SDS011;30433;45.596;8.408;2022-12-05T04:46:19;2.40;;;1.27;;
44706;SDS011;30433;45.596;8.408;2022-12-05T04:52:23;2.35;;;1.05;;
44706;SDS011;30433;45.596;8.408;2022-12-05T04:58:28;4.60;;;1.50;;
44706;SDS011;30433;45.596;8.408;2022-12-05T05:04:33;1.38;;;1.00;;
44706;SDS011;30433;45.596;8.408;2022-12-05T05:10:38;1.58;;;0.40;;
44706;SDS011;30433;45.596;8.408;2022-12-05T05:16:49;0.68;;;0.40;;
44706;SDS011;30433;45.596;8.408;2022-12-05T05:22:52;1.38;;;0.30;;
44706;SDS011;30433;45.596;8.408;2022-12-05T05:28:55;1.55;;;0.80;;
44706;SDS011;30433;45.596;8.408;2022-12-05T05:34:59;2.55;;;0.90;;
44706;SDS011;30433;45.596;8.408;2022-12-05T05:41:01;2.03;;;0.82;;
44706;SDS011;30433;45.596;8.408;2022-12-05T05:47:03;3.75;;;1.42;;
44706;SDS011;30433;45.596;8.408;2022-12-05T05:53:07;1.02;;;0.68;;
44706;SDS011;30433;45.596;8.408;2022-12-05T05:59:09;1.48;;;0.88;;
44706;SDS011;30433;45.596;8.408;2022-12-05T06:05:11;3.50;;;1.58;;
44706;SDS011;30433;45.596;8.408;2022-12-05T06:11:15;1.33;;;0.63;;
44706;SDS011;30433;45.596;8.408;2022-12-05T06:17:18;1.55;;;0.95;;
44706;SDS011;30433;45.596;8.408;2022-12-05T06:23:20;1.60;;;0.90;;
44706;SDS011;30433;45.596;8.408;2022-12-05T06:29:24;1.40;;;1.00;;
44706;SDS011;30433;45.596;8.408;2022-12-05T06:41:28;2.65;;;1.70;;
44706;SDS011;30433;45.596;8.408;2022-12-05T06:47:32;4.40;;;2.17;;
44706;SDS011;30433;45.596;8.408;2022-12-05T06:53:34;4.50;;;2.25;;
44706;SDS011;30433;45.596;8.408;2022-12-05T06:59:36;3.58;;;2.00;;
44706;SDS011;30433;45.596;8.408;2022-12-05T07:05:39;4.22;;;2.00;;
44706;SDS011;30433;45.596;8.408;2022-12-05T07:17:43;3.85;;;1.83;;
44706;SDS011;30433;45.596;8.408;2022-12-05T07:23:47;2.83;;;1.45;;
44706;SDS011;30433;45.596;8.408;2022-12-05T07:29:50;3.20;;;2.20;;
44706;SDS011;30433;45.596;8.408;2022-12-05T07:35:52;4.97;;;2.97;;
44706;SDS011;30433;45.596;8.408;2022-12-05T07:42:00;6.93;;;3.47;;
44706;SDS011;30433;45.596;8.408;2022-12-05T07:54:04;3.55;;;2.38;;
44706;SDS011;30433;45.596;8.408;2022-12-05T08:00:08;6.55;;;2.65;;
44706;SDS011;30433;45.596;8.408;2022-12-05T08:06:12;6.45;;;2.50;;
44706;SDS011;30433;45.596;8.408;2022-12-05T08:12:16;4.57;;;2.78;;
44706;SDS011;30433;45.596;8.408;2022-12-05T08:18:19;2.38;;;1.80;;
44706;SDS011;30433;45.596;8.408;2022-12-05T08:24:21;5.28;;;1.80;;
44706;SDS011;30433;45.596;8.408;2022-12-05T08:30:24;5.17;;;1.57;;
44706;SDS011;30433;45.596;8.408;2022-12-05T08:36:28;4.05;;;2.13;;
44706;SDS011;30433;45.596;8.408;2022-12-05T08:42:31;4.60;;;1.83;;
44706;SDS011;30433;45.596;8.408;2022-12-05T08:48:33;3.35;;;2.22;;
44706;SDS011;30433;45.596;8.408;2022-12-05T08:54:36;5.93;;;2.50;;
44706;SDS011;30433;45.596;8.408;2022-12-05T09:00:39;6.35;;;2.65;;
44706;SDS011;30433;45.596;8.408;2022-12-05T09:06:41;5.05;;;2.97;;
44706;SDS011;30433;45.596;8.408;2022-12-05T09:12:45;6.75;;;3.53;;
44706;SDS011;30433;45.596;8.408;2022-12-05T09:18:47;6.65;;;4.32;;
44706;SDS011;30433;45.596;8.408;2022-12-05T09:24:50;9.88;;;4.18;;
44706;SDS011;30433;45.596;8.408;2022-12-05T09:30:57;7.43;;;5.00;;
44706;SDS011;30433;45.596;8.408;2022-12-05T09:37:02;11.73;;;5.68;;
44706;SDS011;30433;45.596;8.408;2022-12-05T09:43:05;14.45;;;5.80;;
44706;SDS011;30433;45.596;8.408;2022-12-05T09:55:13;11.35;;;6.35;;
44706;SDS011;30433;45.596;8.408;2022-12-05T10:01:21;11.63;;;5.28;;
44706;SDS011;30433;45.596;8.408;2022-12-05T10:07:33;13.93;;;6.43;;
44706;SDS011;30433;45.596;8.408;2022-12-05T10:13:44;10.90;;;6.00;;
44706;SDS011;30433;45.596;8.408;2022-12-05T10:19:54;13.93;;;6.45;;
44706;SDS011;30433;45.596;8.408;2022-12-05T10:26:01;17.25;;;7.80;;
44706;SDS011;30433;45.596;8.408;2022-12-05T10:32:06;15.77;;;8.27;;
44706;SDS011;30433;45.596;8.408;2022-12-05T10:38:15;20.30;;;8.80;;
44706;SDS011;30433;45.596;8.408;2022-12-05T10:44:25;21.17;;;9.05;;
44706;SDS011;30433;45.596;8.408;2022-12-05T10:50:28;24.77;;;10.77;;
44706;SDS011;30433;45.596;8.408;2022-12-05T10:56:35;20.98;;;10.13;;
44706;SDS011;30433;45.596;8.408;2022-12-05T11:02:39;18.20;;;9.02;;
44706;SDS011;30433;45.596;8.408;2022-12-05T11:08:43;19.38;;;10.50;;
44706;SDS011;30433;45.596;8.408;2022-12-05T11:14:53;17.85;;;9.45;;
44706;SDS011;30433;45.596;8.408;2022-12-05T11:21:08;20.35;;;9.10;;
44706;SDS011;30433;45.596;8.408;2022-12-05T11:27:19;19.60;;;9.00;;
44706;SDS011;30433;45.596;8.408;2022-12-05T11:33:22;17.95;;;9.00;;
44706;SDS011;30433;45.596;8.408;2022-12-05T11:39:28;15.98;;;7.82;;
44706;SDS011;30433;45.596;8.408;2022-12-05T11:45:38;16.88;;;8.05;;
44706;SDS011;30433;45.596;8.408;2022-12-05T11:51:50;13.98;;;7.75;;
44706;SDS011;30433;45.596;8.408;2022-12-05T12:04:20;16.92;;;8.57;;
44706;SDS011;30433;45.596;8.408;2022-12-05T12:10:35;15.00;;;9.20;;
44706;SDS011;30433;45.596;8.408;2022-12-05T12:23:01;13.45;;;8.65;;
44706;SDS011;30433;45.596;8.408;2022-12-05T12:29:19;15.45;;;8.35;;
44706;SDS011;30433;45.596;8.408;2022-12-05T12:35:33;12.60;;;7.88;;
44706;SDS011;30433;45.596;8.408;2022-12-05T12:41:52;11.13;;;7.50;;
44706;SDS011;30433;45.596;8.408;2022-12-05T12:48:23;10.30;;;7.47;;
44706;SDS011;30433;45.596;8.408;2022-12-05T12:54:47;12.57;;;8.25;;
44706;SDS011;30433;45.596;8.408;2022-12-05T13:01:00;12.85;;;7.80;;
44706;SDS011;30433;45.596;8.408;2022-12-05T13:07:11;11.27;;;8.02;;
44706;SDS011;30433;45.596;8.408;2022-12-05T13:13:21;12.65;;;8.02;;
44706;SDS011;30433;45.596;8.408;2022-12-05T13:19:27;12.63;;;8.50;;
44706;SDS011;30433;45.596;8.408;2022-12-05T13:25:36;15.07;;;9.75;;
44706;SDS011;30433;45.596;8.408;2022-12-05T13:31:42;14.25;;;9.32;;
44706;SDS011;30433;45.596;8.408;2022-12-05T13:37:47;13.50;;;9.82;;
44706;SDS011;30433;45.596;8.408;2022-12-05T13:44:07;13.85;;;9.43;;
44706;SDS011;30433;45.596;8.408;2022-12-05T13:50:13;14.25;;;9.50;;
44706;SDS011;30433;45.596;8.408;2022-12-05T13:56:24;14.93;;;9.30;;
44706;SDS011;30433;45.596;8.408;2022-12-05T14:02:47;12.02;;;8.90;;
44706;SDS011;30433;45.596;8.408;2022-12-05T14:08:54;12.75;;;9.60;;
44706;SDS011;30433;45.596;8.408;2022-12-05T14:14:57;12.60;;;9.55;;
44706;SDS011;30433;45.596;8.408;2022-12-05T14:21:02;14.95;;;9.35;;
44706;SDS011;30433;45.596;8.408;2022-12-05T14:27:11;12.85;;;8.85;;
44706;SDS011;30433;45.596;8.408;2022-12-05T14:33:21;14.07;;;10.05;;
44706;SDS011;30433;45.596;8.408;2022-12-05T14:39:29;13.70;;;9.23;;
44706;SDS011;30433;45.596;8.408;2022-12-05T14:51:53;17.17;;;10.00;;
44706;SDS011;30433;45.596;8.408;2022-12-05T14:57:57;14.93;;;10.07;;
44706;SDS011;30433;45.596;8.408;2022-12-05T15:04:04;12.55;;;9.63;;
44706;SDS011;30433;45.596;8.408;2022-12-05T15:10:13;15.65;;;10.05;;
44706;SDS011;30433;45.596;8.408;2022-12-05T15:16:21;14.40;;;8.73;;
44706;SDS011;30433;45.596;8.408;2022-12-05T15:22:30;14.68;;;9.50;;
44706;SDS011;30433;45.596;8.408;2022-12-05T15:28:36;14.65;;;9.98;;
44706;SDS011;30433;45.596;8.408;2022-12-05T15:34:39;12.48;;;8.63;;
44706;SDS011;30433;45.596;8.408;2022-12-05T15:40:46;15.82;;;9.85;;
44706;SDS011;30433;45.596;8.408;2022-12-05T15:52:55;10.27;;;5.30;;
44706;SDS011;30433;45.596;8.408;2022-12-05T15:59:02;30.73;;;6.88;;
44706;SDS011;30433;45.596;8.408;2022-12-05T16:05:16;11.68;;;7.85;;
44706;SDS011;30433;45.596;8.408;2022-12-05T16:11:20;18.38;;;11.43;;
44706;SDS011;30433;45.596;8.408;2022-12-05T16:17:24;20.25;;;12.52;;
44706;SDS011;30433;45.596;8.408;2022-12-05T16:23:27;21.60;;;13.98;;
44706;SDS011;30433;45.596;8.408;2022-12-05T16:29:31;13.27;;;8.55;;
44706;SDS011;30433;45.596;8.408;2022-12-05T16:35:36;12.20;;;9.00;;
44706;SDS011;30433;45.596;8.408;2022-12-05T16:41:39;14.90;;;10.00;;
44706;SDS011;30433;45.596;8.408;2022-12-05T16:47:52;22.40;;;15.18;;
44706;SDS011;30433;45.596;8.408;2022-12-05T16:54:00;19.13;;;12.57;;
44706;SDS011;30433;45.596;8.408;2022-12-05T17:00:02;16.02;;;11.27;;
44706;SDS011;30433;45.596;8.408;2022-12-05T17:06:05;10.70;;;7.57;;
44706;SDS011;30433;45.596;8.408;2022-12-05T17:12:11;11.73;;;8.75;;
44706;SDS011;30433;45.596;8.408;2022-12-05T17:18:18;8.10;;;6.63;;
44706;SDS011;30433;45.596;8.408;2022-12-05T17:30:26;8.43;;;5.60;;
44706;SDS011;30433;45.596;8.408;2022-12-05T17:36:28;11.68;;;5.53;;
44706;SDS011;30433;45.596;8.408;2022-12-05T17:42:30;11.73;;;5.25;;
44706;SDS011;30433;45.596;8.408;2022-12-05T17:48:34;6.68;;;5.20;;
44706;SDS011;30433;45.596;8.408;2022-12-05T17:54:36;8.57;;;6.43;;
44706;SDS011;30433;45.596;8.408;2022-12-05T18:00:38;7.68;;;6.47;;
44706;SDS011;30433;45.596;8.408;2022-12-05T18:06:42;41.53;;;7.53;;
44706;SDS011;30433;45.596;8.408;2022-12-05T18:12:45;10.00;;;7.22;;
44706;SDS011;30433;45.596;8.408;2022-12-05T18:18:47;22.93;;;7.33;;
44706;SDS011;30433;45.596;8.408;2022-12-05T18:24:51;9.20;;;5.10;;
44706;SDS011;30433;45.596;8.408;2022-12-05T18:31:06;50.97;;;7.00;;
44706;SDS011;30433;45.596;8.408;2022-12-05T18:37:10;38.63;;;7.10;;
44706;SDS011;30433;45.596;8.408;2022-12-05T18:43:13;47.80;;;6.50;;
44706;SDS011;30433;45.596;8.408;2022-12-05T18:49:16;7.00;;;5.65;;
44706;SDS011;30433;45.596;8.408;2022-12-05T18:55:18;13.10;;;6.20;;
44706;SDS011;30433;45.596;8.408;2022-12-05T19:01:21;11.75;;;6.13;;
44706;SDS011;30433;45.596;8.408;2022-12-05T19:07:24;13.45;;;9.88;;
44706;SDS011;30433;45.596;8.408;2022-12-05T19:13:26;12.77;;;6.97;;
44706;SDS011;30433;45.596;8.408;2022-12-05T19:19:30;14.88;;;6.25;;
44706;SDS011;30433;45.596;8.408;2022-12-05T19:31:34;7.30;;;5.30;;
44706;SDS011;30433;45.596;8.408;2022-12-05T19:37:37;15.00;;;6.72;;
44706;SDS011;30433;45.596;8.408;2022-12-05T19:43:39;16.15;;;6.63;;
44706;SDS011;30433;45.596;8.408;2022-12-05T19:49:42;28.75;;;6.70;;
44706;SDS011;30433;45.596;8.408;2022-12-05T19:55:46;11.35;;;6.43;;
44706;SDS011;30433;45.596;8.408;2022-12-05T20:01:48;11.45;;;6.40;;
44706;SDS011;30433;45.596;8.408;2022-12-05T20:07:50;7.60;;;5.70;;
44706;SDS011;30433;45.596;8.408;2022-12-05T20:13:54;7.22;;;6.10;;
44706;SDS011;30433;45.596;8.408;2022-12-05T20:19:57;5.68;;;4.95;;
44706;SDS011;30433;45.596;8.408;2022-12-05T20:26:00;8.68;;;6.18;;
44706;SDS011;30433;45.596;8.408;2022-12-05T20:32:05;10.45;;;7.72;;
44706;SDS011;30433;45.596;8.408;2022-12-05T20:38:08;13.63;;;9.40;;
44706;SDS011;30433;45.596;8.408;2022-12-05T20:44:11;11.98;;;9.85;;
44706;SDS011;30433;45.596;8.408;2022-12-05T20:50:16;14.45;;;11.20;;
44706;SDS011;30433;45.596;8.408;2022-12-05T20:56:19;12.98;;;10.93;;
44706;SDS011;30433;45.596;8.408;2022-12-05T21:02:24;14.55;;;8.70;;
44706;SDS011;30433;45.596;8.408;2022-12-05T21:08:30;12.35;;;8.07;;
44706;SDS011;30433;45.596;8.408;2022-12-05T21:14:32;9.38;;;7.53;;
44706;SDS011;30433;45.596;8.408;2022-12-05T21:20:35;8.98;;;6.28;;
44706;SDS011;30433;45.596;8.408;2022-12-05T21:26:38;7.55;;;5.40;;
44706;SDS011;30433;45.596;8.408;2022-12-05T21:38:43;12.23;;;6.35;;
44706;SDS011;30433;45.596;8.408;2022-12-05T21:44:47;9.70;;;6.57;;
44706;SDS011;30433;45.596;8.408;2022-12-05T21:50:49;8.27;;;5.75;;
44706;SDS011;30433;45.596;8.408;2022-12-05T21:56:51;10.57;;;7.45;;
44706;SDS011;30433;45.596;8.408;2022-12-05T22:02:55;11.45;;;8.00;;
44706;SDS011;30433;45.596;8.408;2022-12-05T22:08:57;13.68;;;10.27;;
44706;SDS011;30433;45.596;8.408;2022-12-05T22:14:59;8.15;;;6.60;;
44706;SDS011;30433;45.596;8.408;2022-12-05T22:21:04;7.70;;;6.13;;
44706;SDS011;30433;45.596;8.408;2022-12-05T22:27:08;6.53;;;5.70;;
44706;SDS011;30433;45.596;8.408;2022-12-05T22:33:10;7.93;;;6.20;;
44706;SDS011;30433;45.596;8.408;2022-12-05T22:39:13;9.50;;;6.03;;
44706;SDS011;30433;45.596;8.408;2022-12-05T22:45:15;7.47;;;5.82;;
44706;SDS011;30433;45.596;8.408;2022-12-05T22:51:19;7.05;;;6.03;;
44706;SDS011;30433;45.596;8.408;2022-12-05T22:57:23;9.95;;;5.93;;
44706;SDS011;30433;45.596;8.408;2022-12-05T23:03:25;8.43;;;5.70;;
44706;SDS011;30433;45.596;8.408;2022-12-05T23:09:28;7.60;;;6.25;;
44706;SDS011;30433;45.596;8.408;2022-12-05T23:15:31;7.72;;;5.63;;
44706;SDS011;30433;45.596;8.408;2022-12-05T23:21:34;7.43;;;4.68;;
44706;SDS011;30433;45.596;8.408;2022-12-05T23:33:41;7.70;;;5.32;;
44706;SDS011;30433;45.596;8.408;2022-12-05T23:39:43;7.95;;;5.15;;
44706;SDS011;30433;45.596;8.408;2022-12-05T23:45:45;4.82;;;3.53;;
44706;SDS011;30433;45.596;8.408;2022-12-05T23:51:49;5.15;;;3.78;;
